Time;durP1;ratioP1;P1;durP2;ratioP2;P2;SDS_P1;SDS_P2;PMS_P1;PMS_P2;Temp;Humidity;BMP_temperature;BMP_pressure;BME280_temperature;BME280_humidity;BME280_pressure;Samples;Min_cycle;Max_cycle;Signal;HPM_P1;HPM_P2
2024/03/31 00:01:05;;;;;;;8.85;0.70;;;;;;;13.97;93.37;99922.00;4929011;29;20036;-70
2024/03/31 00:03:30;;;;;;;5.57;0.20;;;;;;;13.96;93.66;99933.47;4928511;29;20027;-70
2024/03/31 00:05:56;;;;;;;7.15;0.30;;;;;;;13.94;94.09;99938.06;4910209;29;20071;-70
2024/03/31 00:08:22;;;;;;;10.07;0.30;;;;;;;13.90;95.05;99945.47;4913178;29;20087;-70
2024/03/31 00:10:47;;;;;;;10.35;0.50;;;;;;;13.81;96.32;99943.94;4923472;29;20039;-70
2024/03/31 00:13:13;;;;;;;6.78;0.30;;;;;;;13.73;97.93;99951.03;4910288;29;20028;-70
2024/03/31 00:15:38;;;;;;;8.50;0.57;;;;;;;13.67;98.25;99949.16;4908422;29;20028;-69
2024/03/31 00:18:04;;;;;;;7.72;0.40;;;;;;;13.65;99.02;99951.13;4913023;29;20031;-70
2024/03/31 00:20:29;;;;;;;8.65;0.32;;;;;;;13.61;100.00;99946.25;4907321;29;20047;-70
2024/03/31 00:22:55;;;;;;;6.82;0.32;;;;;;;13.55;100.00;99946.13;4910116;29;20047;-70
2024/03/31 00:25:20;;;;;;;8.32;0.40;;;;;;;13.51;100.00;99944.84;4908843;29;20034;-70
2024/03/31 00:27:46;;;;;;;5.50;0.47;;;;;;;13.50;100.00;99948.47;4907871;29;20047;-70
2024/03/31 00:30:11;;;;;;;6.00;0.50;;;;;;;13.47;100.00;99944.38;4910825;29;20036;-70
2024/03/31 00:32:37;;;;;;;7.25;0.45;;;;;;;13.45;100.00;99950.78;4913875;29;20483;-70
2024/03/31 00:35:03;;;;;;;7.78;0.50;;;;;;;13.42;100.00;99944.09;4910672;29;20411;-70
2024/03/31 00:37:29;;;;;;;7.70;0.40;;;;;;;13.43;100.00;99942.28;4908837;29;20024;-70
2024/03/31 00:39:54;;;;;;;6.60;0.50;;;;;;;13.41;100.00;99955.56;4908699;29;20036;-70
2024/03/31 00:42:20;;;;;;;7.53;0.95;;;;;;;13.39;100.00;99954.91;4902954;29;20040;-70
2024/03/31 00:44:46;;;;;;;8.23;0.75;;;;;;;13.37;100.00;99951.66;4908517;29;20028;-70
2024/03/31 00:47:11;;;;;;;7.53;1.00;;;;;;;13.39;100.00;99957.53;4908009;29;20038;-70
2024/03/31 00:49:37;;;;;;;7.93;0.30;;;;;;;13.40;100.00;99964.41;4911470;29;20123;-70
2024/03/31 00:52:03;;;;;;;19.40;0.50;;;;;;;13.43;100.00;99963.22;4910081;29;20059;-70
2024/03/31 00:54:31;;;;;;;7.47;0.45;;;;;;;13.49;98.78;99963.34;4907723;29;20131;-69
2024/03/31 00:56:57;;;;;;;4.30;0.28;;;;;;;13.55;98.03;99962.66;4909099;29;20028;-69
2024/03/31 00:59:22;;;;;;;3.67;0.40;;;;;;;13.59;97.22;99966.53;4902461;29;20040;-70
2024/03/31 01:01:48;;;;;;;11.75;0.68;;;;;;;13.70;96.07;99954.84;4911252;29;20036;-69
2024/03/31 01:04:13;;;;;;;10.05;0.30;;;;;;;13.81;91.47;99950.97;4909894;29;20127;-70
2024/03/31 01:06:39;;;;;;;4.07;0.28;;;;;;;14.05;91.56;99950.75;4930424;29;20047;-70
2024/03/31 01:09:05;;;;;;;9.57;0.20;;;;;;;14.11;90.90;99944.78;4929733;29;20110;-70
2024/03/31 01:11:31;;;;;;;9.43;0.28;;;;;;;14.11;92.38;99951.84;4928249;29;20095;-70
2024/03/31 01:13:59;;;;;;;12.15;0.57;;;;;;;14.03;92.27;99955.34;4931101;29;20036;-70
2024/03/31 01:16:24;;;;;;;5.50;0.60;;;;;;;14.10;90.59;99951.03;4928484;29;20134;-70
2024/03/31 01:18:50;;;;;;;8.88;0.38;;;;;;;14.24;89.65;99946.75;4929968;29;20414;-70
2024/03/31 01:21:15;;;;;;;13.48;0.93;;;;;;;14.18;90.83;99953.53;4926241;29;20039;-70
2024/03/31 01:23:44;;;;;;;7.80;0.35;;;;;;;14.13;91.73;99944.59;4928191;29;20518;-70
2024/03/31 01:26:10;;;;;;;2.58;0.20;;;;;;;14.05;91.13;99935.03;4929850;29;20063;-69
2024/03/31 01:28:36;;;;;;;11.75;0.77;;;;;;;14.05;89.95;99939.44;4927821;29;20138;-69
2024/03/31 01:31:01;;;;;;;7.82;0.10;;;;;;;14.10;90.38;99937.91;4930457;29;20032;-69
2024/03/31 01:33:27;;;;;;;9.77;0.43;;;;;;;14.01;91.50;99949.47;4927107;29;20032;-69
2024/03/31 01:35:52;;;;;;;13.43;0.65;;;;;;;13.88;92.06;99951.88;4931692;29;20094;-69
2024/03/31 01:38:18;;;;;;;14.02;0.60;;;;;;;13.77;92.97;99941.84;4930485;29;20079;-69
2024/03/31 01:40:43;;;;;;;9.13;0.30;;;;;;;13.72;92.46;99941.56;4932916;29;20039;-69
2024/03/31 01:43:09;;;;;;;11.55;0.55;;;;;;;13.66;93.55;99931.81;4931486;29;20031;-70
2024/03/31 01:45:34;;;;;;;13.05;0.68;;;;;;;13.60;93.50;99928.91;4932323;29;20043;-69
2024/03/31 01:47:59;;;;;;;4.90;0.30;;;;;;;13.67;90.91;99922.97;4931596;29;20092;-70
2024/03/31 01:50:25;;;;;;;5.47;0.35;;;;;;;13.80;90.55;99921.34;4931686;29;20387;-69
2024/03/31 01:52:51;;;;;;;7.95;0.63;;;;;;;13.79;91.81;99926.75;4931379;29;20032;-70
2024/03/31 01:55:17;;;;;;;7.53;0.40;;;;;;;13.69;93.35;99932.28;4933227;29;20451;-70
2024/03/31 01:57:43;;;;;;;14.23;0.40;;;;;;;13.60;94.44;99928.09;4931888;29;20027;-70
2024/03/31 02:00:09;;;;;;;10.02;0.35;;;;;;;13.49;96.62;99916.25;4931519;29;20043;-70
2024/03/31 02:02:34;;;;;;;5.25;0.50;;;;;;;13.38;97.33;99913.22;4919474;29;20032;-70
2024/03/31 02:05:00;;;;;;;13.75;0.40;;;;;;;13.26;96.04;99902.34;4928572;29;20055;-69
2024/03/31 02:07:25;;;;;;;5.32;0.30;;;;;;;13.16;98.32;99892.16;4933008;29;20067;-70
2024/03/31 02:09:51;;;;;;;9.55;0.57;;;;;;;13.07;92.95;99871.44;4929998;29;20036;-69
2024/03/31 02:12:16;;;;;;;10.70;0.45;;;;;;;13.17;92.33;99843.28;4930196;29;20601;-69
2024/03/31 02:14:42;;;;;;;13.98;0.60;;;;;;;13.46;86.95;99811.91;4932433;29;20070;-69
2024/03/31 02:17:07;;;;;;;11.82;0.40;;;;;;;13.60;85.15;99797.22;4930191;29;20043;-69
2024/03/31 02:19:32;;;;;;;13.50;0.93;;;;;;;13.62;88.65;99800.47;4931772;29;20039;-69
2024/03/31 02:21:58;;;;;;;6.88;0.40;;;;;;;13.56;89.18;99777.63;4931376;29;20039;-70
2024/03/31 02:24:23;;;;;;;14.70;1.00;;;;;;;13.47;90.08;99750.75;4929951;29;20558;-69
2024/03/31 02:26:49;;;;;;;9.25;0.50;;;;;;;13.66;87.45;99743.34;4932362;29;20087;-69
2024/03/31 02:29:14;;;;;;;18.33;0.30;;;;;;;13.67;90.21;99748.41;4930575;29;20043;-69
2024/03/31 02:31:40;;;;;;;11.95;0.32;;;;;;;13.38;94.00;99753.63;4928792;29;20054;-70
2024/03/31 02:34:05;;;;;;;9.65;0.20;;;;;;;13.07;96.62;99757.19;4931357;29;20039;-68
2024/03/31 02:36:31;;;;;;;15.13;1.02;;;;;;;12.76;99.09;99746.81;4931457;29;20042;-68
2024/03/31 02:38:58;;;;;;;12.90;0.57;;;;;;;12.52;99.54;99744.41;4932486;29;20035;-68
2024/03/31 02:41:24;;;;;;;11.35;0.55;;;;;;;12.49;100.00;99763.03;4928640;29;20079;-68
2024/03/31 02:43:49;;;;;;;10.05;0.40;;;;;;;12.45;100.00;99790.50;4923871;29;20040;-68
2024/03/31 02:46:15;;;;;;;18.42;0.55;;;;;;;12.44;100.00;99809.75;4925907;29;20157;-68
2024/03/31 02:48:41;;;;;;;9.07;0.40;;;;;;;12.46;100.00;99828.69;4924638;29;20046;-68
2024/03/31 02:51:06;;;;;;;13.57;1.52;;;;;;;12.50;100.00;99828.19;4931200;29;20031;-68
2024/03/31 02:53:31;;;;;;;15.55;0.80;;;;;;;12.57;100.00;99825.69;4923501;29;20071;-68
2024/03/31 02:55:57;;;;;;;5.35;0.32;;;;;;;12.61;100.00;99816.53;4931870;29;20038;-68
2024/03/31 02:58:23;;;;;;;17.63;0.50;;;;;;;12.67;100.00;99810.59;4929925;29;20118;-68
2024/03/31 03:00:48;;;;;;;11.60;0.40;;;;;;;12.70;100.00;99799.00;4931918;29;20456;-68
2024/03/31 03:03:13;;;;;;;13.00;0.60;;;;;;;12.72;100.00;99792.59;4928836;29;20418;-68
2024/03/31 03:05:39;;;;;;;17.52;0.47;;;;;;;12.74;100.00;99805.50;4931422;29;20048;-68
2024/03/31 03:08:06;;;;;;;15.38;0.32;;;;;;;12.71;100.00;99806.66;4931396;29;20083;-68
2024/03/31 03:10:31;;;;;;;13.18;0.50;;;;;;;12.78;96.62;99807.56;4929694;29;20032;-68
2024/03/31 03:12:59;;;;;;;15.73;0.75;;;;;;;12.90;96.60;99800.94;4931021;29;20468;-68
2024/03/31 03:15:24;;;;;;;11.75;0.45;;;;;;;12.93;94.36;99815.47;4925503;29;20167;-68
2024/03/31 03:17:52;;;;;;;6.63;0.50;;;;;;;12.93;97.10;99799.78;4931518;29;20495;-68
2024/03/31 03:20:18;;;;;;;23.73;0.40;;;;;;;12.90;94.98;99800.13;4928151;29;20506;-68
2024/03/31 03:22:44;;;;;;;7.63;0.90;;;;;;;12.96;95.90;99795.00;4929908;29;20039;-68
2024/03/31 03:25:09;;;;;;;13.85;0.55;;;;;;;12.96;96.17;99795.00;4929879;29;20032;-68
2024/03/31 03:27:35;;;;;;;6.18;0.55;;;;;;;13.04;94.06;99798.56;4929434;29;20479;-68
2024/03/31 03:30:00;;;;;;;8.40;0.43;;;;;;;13.08;96.41;99791.97;4929024;29;20038;-68
2024/03/31 03:32:26;;;;;;;9.52;0.38;;;;;;;13.01;99.21;99786.63;4928602;29;20777;-68
2024/03/31 03:34:51;;;;;;;9.10;0.60;;;;;;;12.89;100.00;99783.63;4929535;29;20744;-68
2024/03/31 03:37:17;;;;;;;7.32;0.60;;;;;;;12.77;100.00;99789.44;4929190;29;20051;-68
2024/03/31 03:39:42;;;;;;;7.60;0.28;;;;;;;12.70;100.00;99796.38;4929998;29;20070;-68
2024/03/31 03:42:08;;;;;;;14.32;1.60;;;;;;;12.63;100.00;99791.84;4929736;29;20031;-68
2024/03/31 03:44:33;;;;;;;12.50;0.40;;;;;;;12.64;100.00;99808.34;4929153;29;20378;-68
2024/03/31 03:46:59;;;;;;;14.50;0.85;;;;;;;12.66;100.00;99814.22;4930210;29;20433;-68
2024/03/31 03:49:24;;;;;;;15.20;0.80;;;;;;;12.65;100.00;99812.56;4914303;29;20038;-68
2024/03/31 03:51:51;;;;;;;17.98;1.13;;;;;;;12.65;100.00;99806.53;4928947;29;20059;-68
2024/03/31 03:54:17;;;;;;;12.00;0.57;;;;;;;12.60;100.00;99809.66;4929350;29;20046;-68
2024/03/31 03:56:44;;;;;;;10.40;0.55;;;;;;;12.46;100.00;99815.63;4929717;29;20027;-68
2024/03/31 03:59:13;;;;;;;7.85;0.40;;;;;;;12.43;100.00;99821.19;4928436;29;20118;-68
2024/03/31 04:01:38;;;;;;;7.55;0.30;;;;;;;12.41;100.00;99825.78;4930744;29;20475;-68
2024/03/31 04:04:04;;;;;;;13.40;0.60;;;;;;;12.32;100.00;99826.81;4929665;29;20032;-68
2024/03/31 04:06:30;;;;;;;9.77;0.82;;;;;;;12.19;100.00;99817.75;4911169;29;20067;-68
2024/03/31 04:08:55;;;;;;;7.80;0.30;;;;;;;12.08;100.00;99820.72;4930071;29;20031;-68
2024/03/31 04:11:24;;;;;;;6.88;0.30;;;;;;;12.00;100.00;99830.38;4929100;29;20055;-68
2024/03/31 04:13:50;;;;;;;5.75;0.40;;;;;;;11.89;100.00;99842.00;4930825;29;20035;-68
2024/03/31 04:16:16;;;;;;;9.23;0.40;;;;;;;11.82;100.00;99843.63;4929266;29;20090;-68
2024/03/31 04:18:41;;;;;;;14.88;0.98;;;;;;;11.78;100.00;99847.59;4930401;29;20024;-68
2024/03/31 04:21:07;;;;;;;15.88;0.75;;;;;;;11.75;100.00;99858.34;4928475;29;20036;-68
2024/03/31 04:23:33;;;;;;;13.70;0.73;;;;;;;11.84;100.00;99854.72;4930161;29;20541;-68
2024/03/31 04:25:59;;;;;;;9.90;0.50;;;;;;;11.83;100.00;99851.31;4924312;29;20131;-68
2024/03/31 04:28:24;;;;;;;6.15;0.40;;;;;;;11.85;100.00;99859.78;4929262;29;20035;-68
2024/03/31 04:30:49;;;;;;;8.50;0.50;;;;;;;11.87;100.00;99855.22;4933549;29;20036;-68
2024/03/31 04:33:15;;;;;;;15.13;0.82;;;;;;;11.85;100.00;99851.13;4929163;29;20122;-68
2024/03/31 04:35:40;;;;;;;8.00;0.50;;;;;;;11.83;100.00;99851.31;4930852;29;20059;-68
2024/03/31 04:38:07;;;;;;;8.75;0.40;;;;;;;11.96;100.00;99858.63;4929216;29;20446;-69
2024/03/31 04:40:33;;;;;;;10.05;0.40;;;;;;;11.95;100.00;99854.38;4926456;29;20028;-69
2024/03/31 04:42:59;;;;;;;11.10;0.60;;;;;;;11.83;100.00;99848.69;4927754;29;20159;-69
2024/03/31 04:45:24;;;;;;;12.90;1.05;;;;;;;11.72;100.00;99845.63;4929679;29;21532;-68
2024/03/31 04:47:50;;;;;;;12.40;0.93;;;;;;;11.61;100.00;99839.75;4931908;29;20157;-69
2024/03/31 04:50:18;;;;;;;13.25;0.52;;;;;;;11.52;100.00;99839.94;4925460;29;20110;-69
2024/03/31 04:52:44;;;;;;;11.65;0.40;;;;;;;11.42;100.00;99837.50;4928344;29;20502;-69
2024/03/31 04:55:09;;;;;;;6.53;0.40;;;;;;;11.47;100.00;99844.84;4927239;29;20035;-69
2024/03/31 04:57:35;;;;;;;10.75;1.05;;;;;;;11.47;100.00;99850.88;4918846;29;20803;-69
2024/03/31 05:00:00;;;;;;;3.75;0.75;;;;;;;11.44;100.00;99855.59;4924862;29;20039;-69
2024/03/31 05:02:26;;;;;;;13.48;0.55;;;;;;;11.42;100.00;99849.72;4918473;29;20502;-69
2024/03/31 05:04:51;;;;;;;8.27;0.43;;;;;;;11.48;100.00;99841.25;4925840;29;20067;-69
2024/03/31 05:07:18;;;;;;;10.73;0.93;;;;;;;11.58;100.00;99845.31;4922819;29;20092;-69
2024/03/31 05:09:44;;;;;;;14.35;0.50;;;;;;;11.68;100.00;99854.75;4928262;29;20043;-69
2024/03/31 05:12:10;;;;;;;17.38;0.90;;;;;;;11.81;100.00;99849.88;4931240;29;20075;-68
2024/03/31 05:14:35;;;;;;;7.55;0.70;;;;;;;11.86;100.00;99843.13;4932245;29;20072;-69
2024/03/31 05:17:03;;;;;;;12.65;0.55;;;;;;;11.93;100.00;99848.50;4932190;29;20098;-68
2024/03/31 05:19:29;;;;;;;14.70;0.80;;;;;;;12.01;100.00;99848.47;4930664;29;20055;-68
2024/03/31 05:21:54;;;;;;;15.93;0.50;;;;;;;12.10;100.00;99854.50;4933208;29;20063;-69
2024/03/31 05:24:20;;;;;;;8.93;0.35;;;;;;;12.19;100.00;99849.06;4931265;29;20067;-69
2024/03/31 05:26:45;;;;;;;12.75;0.60;;;;;;;12.28;100.00;99850.69;4932523;29;20040;-69
2024/03/31 05:29:10;;;;;;;12.13;0.45;;;;;;;12.35;100.00;99842.13;4930213;29;20039;-69
2024/03/31 05:31:36;;;;;;;12.18;0.47;;;;;;;12.42;100.00;99845.69;4931846;29;20495;-69
2024/03/31 05:34:03;;;;;;;10.95;0.63;;;;;;;12.47;100.00;99859.88;4932435;29;20486;-69
2024/03/31 05:36:29;;;;;;;12.10;0.38;;;;;;;12.50;100.00;99856.09;4931565;29;20094;-69
2024/03/31 05:38:55;;;;;;;9.27;0.40;;;;;;;12.49;100.00;99862.31;4933325;29;20055;-69
2024/03/31 05:41:21;;;;;;;15.02;1.30;;;;;;;12.46;100.00;99860.84;4929666;29;20066;-68
2024/03/31 05:43:46;;;;;;;18.08;0.60;;;;;;;12.44;100.00;99851.56;4931649;29;20051;-69
2024/03/31 05:46:12;;;;;;;13.10;0.60;;;;;;;12.51;100.00;99870.78;4932738;29;20055;-69
2024/03/31 05:48:37;;;;;;;7.40;0.90;;;;;;;12.59;100.00;99871.56;4927335;29;20035;-69
2024/03/31 05:51:03;;;;;;;17.73;1.48;;;;;;;12.63;100.00;99877.28;4931843;29;20037;-69
2024/03/31 05:53:28;;;;;;;9.88;0.40;;;;;;;12.65;100.00;99880.53;4931601;29;20126;-69
2024/03/31 05:55:54;;;;;;;56.17;15.07;;;;;;;12.67;100.00;99873.34;4914683;29;20036;-69
2024/03/31 05:58:19;;;;;;;20.15;3.55;;;;;;;12.59;100.00;99870.75;4930271;29;20031;-69
2024/03/31 06:00:45;;;;;;;19.10;2.78;;;;;;;12.63;100.00;99883.31;4932240;29;20039;-69
2024/03/31 06:03:10;;;;;;;14.30;3.35;;;;;;;12.70;100.00;99887.84;4931442;29;20474;-69
2024/03/31 06:05:36;;;;;;;10.15;0.60;;;;;;;12.65;100.00;99892.78;4930714;29;20080;-69
2024/03/31 06:08:01;;;;;;;9.90;0.63;;;;;;;12.58;100.00;99890.03;4933057;29;20042;-69
2024/03/31 06:10:27;;;;;;;17.95;0.95;;;;;;;12.66;100.00;99892.59;4931661;29;20095;-69
2024/03/31 06:12:52;;;;;;;12.68;0.85;;;;;;;12.66;100.00;99891.78;4927212;29;20046;-70
2024/03/31 06:15:18;;;;;;;10.80;0.50;;;;;;;12.69;100.00;99887.03;4932161;29;20039;-70
2024/03/31 06:17:43;;;;;;;13.02;0.90;;;;;;;12.72;100.00;99891.94;4931633;29;20036;-70
2024/03/31 06:20:10;;;;;;;12.32;0.82;;;;;;;12.80;100.00;99896.25;4932083;29;20043;-70
2024/03/31 06:22:42;;;;;;;15.02;0.73;;;;;;;12.87;100.00;99905.88;4933018;29;20115;-70
2024/03/31 06:25:08;;;;;;;15.93;0.60;;;;;;;12.91;100.00;99907.16;4930258;29;20035;-70
2024/03/31 06:27:34;;;;;;;11.02;0.32;;;;;;;12.84;100.00;99906.22;4930367;29;20028;-70
2024/03/31 06:30:00;;;;;;;14.18;0.73;;;;;;;12.89;100.00;99910.91;4928501;29;20419;-70
2024/03/31 06:32:26;;;;;;;10.88;0.30;;;;;;;12.89;100.00;99906.50;4930335;29;20031;-70
2024/03/31 06:34:52;;;;;;;8.23;0.50;;;;;;;12.98;99.59;99890.78;4931836;29;20046;-70
2024/03/31 06:37:18;;;;;;;4.25;0.55;;;;;;;13.07;96.92;99881.88;4931820;29;20027;-70
2024/03/31 06:39:44;;;;;;;10.50;0.85;;;;;;;13.14;95.73;99888.06;4930096;29;20031;-70
2024/03/31 06:42:10;;;;;;;5.72;0.30;;;;;;;13.18;96.68;99891.97;4928179;29;20032;-71
2024/03/31 06:44:35;;;;;;;17.80;0.65;;;;;;;13.22;98.55;99885.41;4929738;29;20505;-70
2024/03/31 06:47:01;;;;;;;11.00;0.30;;;;;;;13.26;98.46;99882.25;4929457;29;20035;-71
2024/03/31 06:49:27;;;;;;;6.97;0.68;;;;;;;13.36;99.42;99887.22;4929005;29;20484;-70
2024/03/31 06:51:52;;;;;;;10.63;0.30;;;;;;;13.43;99.28;99882.94;4929498;29;20043;-70
2024/03/31 06:54:18;;;;;;;9.68;0.60;;;;;;;13.51;96.43;99875.00;4930941;29;20476;-70
2024/03/31 06:56:43;;;;;;;14.73;0.70;;;;;;;13.71;99.63;99887.56;4927377;29;20032;-70
2024/03/31 06:59:09;;;;;;;13.98;0.82;;;;;;;13.79;100.00;99875.22;4929872;29;20031;-70
2024/03/31 07:01:34;;;;;;;11.80;1.88;;;;;;;13.92;100.00;99871.97;4914566;29;20111;-70
2024/03/31 07:04:00;;;;;;;14.70;0.60;;;;;;;13.96;95.98;99870.63;4930374;29;20076;-71
2024/03/31 07:06:25;;;;;;;13.05;0.50;;;;;;;14.01;99.06;99878.75;4934392;29;20059;-71
2024/03/31 07:08:51;;;;;;;17.63;0.73;;;;;;;14.03;97.76;99892.47;4918226;29;20211;-70
2024/03/31 07:11:16;;;;;;;7.68;0.73;;;;;;;14.05;97.89;99895.72;4933242;29;20054;-70
2024/03/31 07:13:42;;;;;;;7.15;0.77;;;;;;;14.14;98.53;99907.75;4929969;29;20114;-72
2024/03/31 07:16:07;;;;;;;10.55;0.40;;;;;;;14.15;98.55;99913.81;4929210;29;20043;-73
2024/03/31 07:18:33;;;;;;;16.92;0.50;;;;;;;14.25;99.33;99907.28;4931572;29;20030;-72
2024/03/31 07:20:58;;;;;;;8.95;1.27;;;;;;;14.22;99.48;99902.41;4930906;29;20039;-72
2024/03/31 07:23:24;;;;;;;7.97;0.63;;;;;;;14.10;97.31;99911.72;4928752;29;20043;-72
2024/03/31 07:25:49;;;;;;;7.97;0.45;;;;;;;14.10;96.59;99919.59;4930079;29;20411;-72
2024/03/31 07:28:15;;;;;;;8.00;0.63;;;;;;;14.16;100.00;99918.88;4927084;29;20395;-72
2024/03/31 07:30:40;;;;;;;13.93;0.50;;;;;;;14.13;97.71;99919.22;4929180;29;20028;-72
2024/03/31 07:33:05;;;;;;;9.57;0.60;;;;;;;14.14;96.85;99917.41;4927170;29;20046;-72
2024/03/31 07:35:31;;;;;;;12.60;0.70;;;;;;;14.11;96.57;99923.84;4926605;29;20051;-72
2024/03/31 07:37:56;;;;;;;10.57;0.57;;;;;;;14.20;99.09;99925.34;4930172;29;20078;-72
2024/03/31 07:40:22;;;;;;;14.52;0.40;;;;;;;14.27;99.02;99918.38;4929807;29;20515;-72
2024/03/31 07:42:47;;;;;;;12.45;0.32;;;;;;;14.28;98.58;99922.63;4928787;29;20038;-72
2024/03/31 07:45:13;;;;;;;7.70;0.50;;;;;;;14.22;95.55;99923.34;4930453;29;20126;-72
2024/03/31 07:47:39;;;;;;;13.60;0.32;;;;;;;14.27;96.04;99918.38;4929274;29;20039;-72
2024/03/31 07:50:05;;;;;;;6.65;0.30;;;;;;;14.32;96.03;99911.78;4930525;29;20039;-72
2024/03/31 07:52:30;;;;;;;13.02;0.50;;;;;;;14.45;97.78;99909.38;4932361;29;20031;-73
2024/03/31 07:54:56;;;;;;;9.15;0.80;;;;;;;14.54;94.22;99913.53;4931048;29;20027;-72
2024/03/31 07:57:21;;;;;;;9.95;0.43;;;;;;;14.71;93.90;99914.09;4925934;29;20047;-72
2024/03/31 07:59:47;;;;;;;15.23;0.57;;;;;;;14.79;90.24;99912.19;4930222;29;20094;-72
2024/03/31 08:02:12;;;;;;;12.07;0.90;;;;;;;15.06;88.24;99917.72;4929006;29;20043;-72
2024/03/31 08:04:39;;;;;;;9.75;1.05;;;;;;;15.24;90.17;99928.59;4928632;29;20130;-71
2024/03/31 08:07:04;;;;;;;6.18;0.40;;;;;;;15.38;86.74;99924.28;4930128;29;20047;-72
2024/03/31 08:09:30;;;;;;;4.35;0.40;;;;;;;15.53;90.07;99917.97;4921806;29;20051;-72
2024/03/31 08:11:55;;;;;;;9.25;0.50;;;;;;;15.55;89.90;99905.47;4927012;29;20024;-72
2024/03/31 08:14:21;;;;;;;11.60;0.50;;;;;;;15.51;85.65;99906.84;4925612;29;20062;-72
2024/03/31 08:16:46;;;;;;;8.88;0.55;;;;;;;15.56;91.57;99899.22;4925488;29;20432;-72
2024/03/31 08:19:12;;;;;;;8.32;0.52;;;;;;;15.58;88.02;99889.34;4925325;29;20059;-72
2024/03/31 08:21:40;;;;;;;11.02;0.50;;;;;;;15.77;87.06;99905.41;4927592;29;20434;-72
2024/03/31 08:24:06;;;;;;;8.63;0.57;;;;;;;15.85;88.41;99911.34;4927640;29;20038;-73
2024/03/31 08:26:33;;;;;;;12.13;0.30;;;;;;;15.99;89.96;99907.00;4928738;29;20391;-73
2024/03/31 08:28:59;;;;;;;12.50;0.57;;;;;;;16.08;90.59;99897.94;4929294;29;20044;-72
2024/03/31 08:31:24;;;;;;;11.25;0.30;;;;;;;16.06;89.34;99896.53;4929512;29;20054;-72
2024/03/31 08:33:50;;;;;;;16.02;0.80;;;;;;;16.19;90.89;99905.28;4929022;29;20047;-72
2024/03/31 08:36:15;;;;;;;14.57;0.40;;;;;;;16.40;91.64;99901.75;4930470;29;20062;-71
2024/03/31 08:38:41;;;;;;;5.85;0.47;;;;;;;16.41;91.59;99906.00;4928130;29;20484;-72
2024/03/31 08:41:10;;;;;;;9.98;0.30;;;;;;;16.35;93.00;99905.97;4927734;29;20039;-72
2024/03/31 08:43:37;;;;;;;17.63;1.00;;;;;;;16.20;93.28;99912.16;4932372;29;20479;-72
2024/03/31 08:46:06;;;;;;;10.38;0.55;;;;;;;16.08;94.87;99916.31;4933794;29;20344;-72
2024/03/31 08:48:32;;;;;;;10.85;0.95;;;;;;;15.95;95.50;99912.81;4933402;29;20090;-72
2024/03/31 08:50:58;;;;;;;15.70;0.77;;;;;;;15.85;95.94;99921.03;4932602;29;20060;-71
2024/03/31 08:53:28;;;;;;;7.32;0.57;;;;;;;15.75;96.96;99913.50;4934013;29;20074;-72
2024/03/31 08:55:53;;;;;;;9.32;0.82;;;;;;;15.77;96.39;99915.94;4933786;29;20036;-71
2024/03/31 08:58:19;;;;;;;12.40;0.90;;;;;;;15.81;95.27;99925.88;4932565;29;20027;-72
2024/03/31 09:00:47;;;;;;;14.85;0.90;;;;;;;15.75;96.32;99918.75;4931018;29;20034;-72
2024/03/31 09:03:12;;;;;;;6.00;0.50;;;;;;;15.67;97.38;99918.06;4933378;29;20031;-72
2024/03/31 09:05:39;;;;;;;9.90;0.75;;;;;;;15.58;98.30;99910.34;4931425;29;20366;-72
2024/03/31 09:08:06;;;;;;;6.15;0.70;;;;;;;15.51;98.88;99904.22;4930348;29;20063;-72
2024/03/31 09:10:32;;;;;;;10.30;0.80;;;;;;;15.54;95.73;99906.47;4913516;29;20039;-72
2024/03/31 09:12:57;;;;;;;10.27;0.40;;;;;;;15.70;96.22;99905.38;4930946;29;20463;-72
2024/03/31 09:15:23;;;;;;;12.35;0.75;;;;;;;15.73;97.12;99907.63;4933238;29;20114;-72
2024/03/31 09:17:48;;;;;;;6.35;0.32;;;;;;;15.72;97.21;99897.31;4932843;29;20028;-72
2024/03/31 09:20:14;;;;;;;12.65;0.70;;;;;;;15.67;95.35;99887.38;4933292;29;20043;-72
2024/03/31 09:22:40;;;;;;;9.68;0.57;;;;;;;15.67;91.18;99891.81;4934238;29;20050;-71
2024/03/31 09:25:08;;;;;;;12.63;0.55;;;;;;;15.64;90.76;99894.81;4934164;29;20387;-74
2024/03/31 09:27:35;;;;;;;10.70;0.35;;;;;;;15.59;93.16;99896.22;4933132;29;20102;-74
2024/03/31 09:30:01;;;;;;;10.32;1.02;;;;;;;15.50;91.68;99894.72;4931034;29;20118;-74
2024/03/31 09:32:27;;;;;;;10.30;0.50;;;;;;;15.49;94.30;99889.66;4931046;29;20111;-74
2024/03/31 09:34:53;;;;;;;11.95;0.57;;;;;;;15.46;95.11;99885.59;4933076;29;20142;-74
2024/03/31 09:37:19;;;;;;;5.18;0.50;;;;;;;15.45;93.32;99885.78;4930458;29;20024;-74
2024/03/31 09:39:44;;;;;;;11.50;0.80;;;;;;;15.48;92.97;99893.28;4931121;29;20032;-74
2024/03/31 09:42:10;;;;;;;10.95;1.33;;;;;;;15.50;94.42;99892.09;4930164;29;20139;-74
2024/03/31 09:44:39;;;;;;;10.07;0.90;;;;;;;15.44;95.21;99882.34;4915305;29;20058;-74
2024/03/31 09:47:11;;;;;;;10.43;1.20;;;;;;;15.36;94.71;99887.72;4929485;29;20040;-74
2024/03/31 09:49:40;;;;;;;4.45;0.80;;;;;;;15.35;95.32;99880.84;4930567;29;20360;-74
2024/03/31 09:52:09;;;;;;;14.75;1.45;;;;;;;15.25;96.94;99878.53;4926872;29;20043;-73
2024/03/31 09:54:53;;;;;;;13.88;1.55;;;;;;;15.09;95.18;99878.81;4928344;29;20487;-74
2024/03/31 09:57:25;;;;;;;15.65;1.15;;;;;;;15.07;98.08;99880.00;4930270;29;20036;-72
2024/03/31 09:59:58;;;;;;;15.07;1.33;;;;;;;14.99;100.00;99874.88;4928772;29;20122;-72
2024/03/31 10:02:26;;;;;;;12.07;1.00;;;;;;;14.83;100.00;99889.84;4932085;29;20399;-71
2024/03/31 10:04:56;;;;;;;13.93;1.10;;;;;;;14.62;100.00;99889.84;4931494;29;20051;-72
2024/03/31 10:07:24;;;;;;;13.30;1.30;;;;;;;14.48;100.00;99872.31;4928028;29;20042;-71
2024/03/31 10:09:51;;;;;;;9.88;1.15;;;;;;;14.35;100.00;99875.56;4931968;29;20036;-72
2024/03/31 10:12:17;;;;;;;14.75;0.98;;;;;;;14.43;100.00;99890.41;4930715;29;20133;-72
2024/03/31 10:14:46;;;;;;;11.68;1.17;;;;;;;14.36;100.00;99894.72;4934790;29;20035;-72
2024/03/31 10:17:14;;;;;;;7.00;0.77;;;;;;;14.23;100.00;99898.78;4929764;29;20118;-73
2024/03/31 10:19:41;;;;;;;17.13;1.38;;;;;;;14.09;100.00;99894.38;4933814;29;20054;-72
2024/03/31 10:22:10;;;;;;;17.33;1.55;;;;;;;14.04;100.00;99894.09;4926429;29;20248;-70
2024/03/31 10:24:40;;;;;;;13.40;0.98;;;;;;;14.00;100.00;99908.56;4930355;29;20063;-72
2024/03/31 10:27:07;;;;;;;9.18;0.88;;;;;;;13.81;100.00;99909.88;4927321;29;20110;-71
2024/03/31 10:29:33;;;;;;;7.35;0.80;;;;;;;13.67;100.00;99923.78;4929809;29;20027;-72
2024/03/31 10:31:58;;;;;;;10.95;1.02;;;;;;;13.60;100.00;99923.69;4927882;29;20070;-72
2024/03/31 10:34:24;;;;;;;11.02;0.52;;;;;;;13.53;100.00;99925.38;4931137;29;20118;-72
2024/03/31 10:36:51;;;;;;;13.90;1.33;;;;;;;13.64;100.00;99939.03;4929494;29;20063;-72
2024/03/31 10:39:21;;;;;;;11.10;1.00;;;;;;;13.60;100.00;99947.22;4930469;29;20471;-73
2024/03/31 10:41:48;;;;;;;13.98;1.05;;;;;;;13.48;100.00;99943.41;4931942;29;20131;-73
2024/03/31 10:44:15;;;;;;;8.70;1.02;;;;;;;13.43;100.00;99939.69;4930297;29;20046;-73
2024/03/31 10:46:42;;;;;;;14.98;1.00;;;;;;;13.42;100.00;99951.13;4930726;29;20489;-72
2024/03/31 10:49:09;;;;;;;18.05;1.10;;;;;;;13.46;100.00;99950.63;4931047;29;20031;-72
2024/03/31 10:51:35;;;;;;;18.77;1.63;;;;;;;13.37;100.00;99940.38;4928215;29;20047;-72
2024/03/31 10:54:28;;;;;;;23.50;2.10;;;;;;;13.29;100.00;99921.13;4930367;29;20035;-72
2024/03/31 10:57:05;;;;;;;12.75;1.35;;;;;;;13.23;100.00;99928.88;4924609;29;20103;-71
2024/03/31 10:59:31;;;;;;;7.35;0.77;;;;;;;13.19;100.00;99932.84;4930171;29;20444;-72
2024/03/31 11:02:17;;;;;;;16.75;1.33;;;;;;;13.16;100.00;99939.22;4931643;29;20027;-72
2024/03/31 11:04:45;;;;;;;8.55;0.63;;;;;;;13.21;100.00;99943.94;4914004;29;20039;-72
2024/03/31 11:07:15;;;;;;;10.95;0.77;;;;;;;13.25;100.00;99945.19;4926177;29;20043;-71
2024/03/31 11:09:42;;;;;;;14.55;0.90;;;;;;;13.31;100.00;99938.47;4910607;29;20027;-71
2024/03/31 11:12:10;;;;;;;12.77;1.00;;;;;;;13.32;100.00;99934.84;4927972;29;20035;-72
2024/03/31 11:14:36;;;;;;;14.38;0.82;;;;;;;13.35;100.00;99926.66;4929846;29;20027;-71
2024/03/31 11:17:03;;;;;;;18.13;0.93;;;;;;;13.36;100.00;99929.09;4928398;29;20043;-71
2024/03/31 11:19:29;;;;;;;11.90;0.95;;;;;;;13.37;100.00;99932.53;4926115;29;20040;-71